Terminal Aerodrome Forecast
Issued by NWS Mobile, AL

Home | Current Version | Previous Version | Text Only | Print | Product List | Glossary On
Versions: 1 2 3 4 5 6 7 8 9 10 11 12 13 14 15 16 17 18 19 20
000
FTUS44 KMOB 032325
TAFPNS
TAF
KPNS 032325Z 0400/0424 00000KT P6SM VCTS SCT023CB BKN035 OVC070
      TEMPO 0400/0401 5SM TSRA BKN023CB
     FM040500 35010KT P6SM SCT035
     FM041600 34010KT P6SM SKC=

USA.gov is the U.S. government's official web portal to all federal, state and local government web resources and services.